Data for 03/26/2009

Time Sea-Level Adjusted Pressure Absolute Pressure Temperature Relative Humidity Dew Point   
(mb) (inHg) (mb) (inHg) (C) (F) (%) (C) (F)
00:05 1015 29.97 844 24.92 -9.5 15 88 -11.1 12
00:10 1015 29.97 844 24.92 -9.4 15 86 -11.3 11.6
00:15 1015 29.97 844 24.92 -9.4 15.1 85 -11.5 11.3
00:20 1015 29.97 844 24.92 -9.4 15.2 83 -11.8 10.8
00:25 1015 29.97 844 24.92 -9.4 15 82 -12 10.5
00:30 1015 29.97 844 24.92 -9.4 15.2 81 -12.1 10.2
00:35 1015 29.97 844 24.92 -9.3 15.2 80 -12.3 9.9
00:40 1015 29.97 844 24.92 -9.4 15.2 81 -12 10.4
00:45 1015 29.97 844 24.92 -9.4 15.1 79 -12.3 9.8
00:50 1015 29.97 844 24.92 -9.5 15 82 -11.9 10.5
00:55 1015 29.97 845 24.95 -9.5 15 83 -11.8 10.7
01:00 1015 29.97 845 24.95 -9.5 15 84 -11.7 10.9
01:05 1016 30 845 24.95 -9.5 15 85 -11.6 11.2
01:10 1016 30 845 24.95 -9.4 15.2 86 -11.3 11.7
01:15 1016 30 845 24.95 -9.4 15.1 86 -11.3 11.7
01:20 1016 30 845 24.95 -9.6 14.7 87 -11.3 11.6
01:25 1016 30 845 24.95 -9.7 14.5 89 -11.1 11.9
01:30 1016 30 845 24.95 -9.7 14.5 89 -11.1 11.9
01:35 1016 30 845 24.95 -9.7 14.5 88 -11.3 11.6
01:40 1016 30 845 24.95 -9.9 14.2 88 -11.5 11.3
01:45 1016 30 846 24.98 -10 14 88 -11.7 10.9
01:50 1016 30 846 24.98 -10.1 13.8 87 -11.9 10.6
01:55 1017 30.03 846 24.98 -10.2 13.7 87 -12 10.4
02:00 1017 30.03 846 24.98 -10.2 13.6 86 -12.1 10.3
02:05 1017 30.03 846 24.98 -10.2 13.6 83 -12.5 9.4
02:10 1017 30.03 846 24.98 -10.2 13.6 84 -12.4 9.7
02:15 1017 30.03 846 24.98 -10.3 13.5 85 -12.3 9.8
02:20 1017 30.03 846 24.98 -10.3 13.5 85 -12.3 9.8
02:25 1017 30.03 846 24.98 -10.3 13.4 85 -12.4 9.7
02:30 1017 30.03 846 24.98 -10.3 13.5 85 -12.4 9.8
02:35 1017 30.03 846 24.98 -10.3 13.5 85 -12.3 9.9
02:40 1017 30.03 846 24.98 -10.3 13.5 85 -12.3 9.8
02:45 1017 30.03 846 24.98 -10.3 13.6 85 -12.4 9.7
02:50 1017 30.03 846 24.98 -10.3 13.4 82 -12.8 9
02:55 1017 30.03 846 24.98 -10.3 13.6 83 -12.6 9.3
03:00 1017 30.03 846 24.98 -10.3 13.6 83 -12.6 9.3
03:05 1017 30.03 846 24.98 -10.3 13.5 85 -12.3 9.8
03:10 1017 30.03 846 24.98 -10.4 13.3 85 -12.5 9.5
03:15 1017 30.03 846 24.98 -10.5 13.2 85 -12.6 9.4
03:20 1017 30.03 846 24.98 -10.5 13.2 85 -12.6 9.4
03:25 1017 30.03 846 24.98 -10.5 13.1 86 -12.4 9.7
03:30 1017 30.03 846 24.98 -10.6 13 87 -12.3 9.9
03:35 1017 30.03 846 24.98 -10.6 12.9 88 -12.2 10
03:40 1017 30.03 846 24.98 -10.6 12.9 88 -12.3 9.9
03:45 1017 30.03 846 24.98 -10.6 13 86 -12.4 9.7
03:50 1017 30.03 846 24.98 -10.6 13 81 -13.2 8.3
03:55 1017 30.03 846 24.98 -10.5 13 77 -13.8 7.2
04:00 1017 30.03 846 24.98 -10.4 13.2 78 -13.6 7.4
04:05 1017 30.03 847 25.01 -10.2 13.6 81 -12.9 8.8
04:10 1017 30.03 847 25.01 -10 14.1 81 -12.6 9.3
04:15 1017 30.03 847 25.01 -10 14.1 80 -12.7 9.1
04:20 1018 30.06 847 25.01 -10 14 74 -13.7 7.3
04:25 1018 30.06 847 25.01 -10.1 13.9 71 -14.4 6.1
04:30 1018 30.06 847 25.01 -10 13.9 64 -15.5 4
04:35 1018 30.06 847 25.01 -10.1 13.8 62 -16.1 3
04:40 1018 30.06 847 25.01 -10.2 13.7 62 -16.1 3.1
04:45 1018 30.06 847 25.01 -10.3 13.5 61 -16.5 2.3
04:50 1018 30.06 847 25.01 -10.4 13.3 61 -16.5 2.2
04:55 1018 30.06 847 25.01 -10.5 13.1 60 -16.9 1.5
05:00 1018 30.06 848 25.04 -10.5 13 60 -16.8 1.8
05:05 1018 30.06 848 25.04 -10.6 13 61 -16.8 1.8
05:10 1019 30.09 848 25.04 -10.7 12.7 60 -17 1.4
05:15 1019 30.09 848 25.04 -10.8 12.6 61 -16.9 1.5
05:20 1019 30.09 848 25.04 -10.9 12.4 61 -17 1.5
05:25 1019 30.09 848 25.04 -10.9 12.3 61 -17.1 1.3
05:30 1019 30.09 848 25.04 -11 12.2 61 -17.2 1.1
05:35 1019 30.09 848 25.04 -11.1 12 62 -17 1.4
05:40 1019 30.09 848 25.04 -11.2 11.9 62 -17.2 1.1
05:45 1019 30.09 849 25.07 -11.3 11.6 62 -17.2 1.1
05:50 1019 30.09 849 25.07 -11.5 11.4 62 -17.3 0.8
05:55 1020 30.12 849 25.07 -11.6 11.2 63 -17.2 1
06:00 1020 30.12 849 25.07 -11.7 11 62 -17.5 0.4
06:05 1020 30.12 849 25.07 -11.7 10.9 65 -17.1 1.2
06:10 1020 30.12 849 25.07 -11.8 10.7 64 -17.2 1
06:15 1020 30.12 849 25.07 -11.9 10.5 64 -17.4 0.8
06:20 1020 30.12 849 25.07 -12 10.4 65 -17.3 0.9
06:25 1020 30.12 849 25.07 -12.1 10.2 66 -17.2 1
06:30 1020 30.12 849 25.07 -12.5 9.5 68 -17.3 0.8
06:35 1020 30.12 849 25.07 -12.8 9 69 -17.3 0.9
06:40 1020 30.12 849 25.07 -13.2 8.2 70 -17.6 0.4
06:45 1020 30.12 849 25.07 -13.6 7.4 72 -17.7 0.1
06:50 1020 30.12 850 25.1 -13.9 7 72 -17.8 -0.1
06:55 1020 30.12 850 25.1 -14 6.8 73 -17.8 -0
07:00 1020 30.12 850 25.1 -13.9 7 73 -17.7 0.1
07:05 1021 30.15 850 25.1 -13.9 7.1 73 -17.7 0.2
07:10 1021 30.15 850 25.1 -13.8 7.1 74 -17.6 0.4
07:15 1021 30.15 850 25.1 -13.8 7.2 74 -17.5 0.5
07:20 1021 30.15 850 25.1 -14.2 6.5 76 -17.6 0.3
07:25 1021 30.15 850 25.1 -14.2 6.4 76 -17.6 0.3
07:30 1021 30.15 850 25.1 -14.2 6.4 76 -17.5 0.5
07:35 1021 30.15 850 25.1 -14.2 6.5 77 -17.4 0.6
07:40 1021 30.15 850 25.1 -14 6.8 78 -17 1.3
07:45 1021 30.15 850 25.1 -13.8 7.1 78 -16.9 1.5
07:50 1021 30.15 850 25.1 -13.7 7.3 77 -16.9 1.5
07:55 1021 30.15 851 25.13 -13.5 7.6 77 -16.8 1.7
08:00 1021 30.15 851 25.13 -13.6 7.6 76 -17 1.5
08:05 1022 30.18 851 25.13 -13.5 7.7 76 -16.9 1.6
08:10 1022 30.18 851 25.13 -13.2 8.2 75 -16.7 1.9
08:15 1022 30.18 851 25.13 -13.2 8.2 77 -16.5 2.3
08:20 1022 30.18 851 25.13 -13.2 8.3 77 -16.4 2.5
08:25 1022 30.18 851 25.13 -13 8.7 76 -16.3 2.6
08:30 1022 30.18 851 25.13 -12.8 9 76 -16.2 2.8
08:35 1022 30.18 851 25.13 -13 8.6 76 -16.3 2.6
08:40 1022 30.18 851 25.13 -13 8.6 76 -16.3 2.6
08:45 1022 30.18 851 25.13 -13.1 8.5 78 -16.2 2.8
08:50 1022 30.18 851 25.13 -12.7 9.2 78 -15.8 3.6
08:55 1022 30.18 851 25.13 -12.4 9.7 78 -15.5 4.2
09:00 1022 30.18 851 25.13 -12.2 10 79 -15.1 4.7
09:05 1022 30.18 852 25.16 -12.2 10 80 -15.1 4.9
09:10 1022 30.18 852 25.16 -12.3 9.8 80 -15.1 4.8
09:15 1022 30.18 852 25.16 -12.1 10.3 79 -15 5
09:20 1022 30.18 852 25.16 -12 10.4 78 -15 5
09:25 1022 30.18 852 25.16 -12 10.5 79 -14.9 5.3
09:30 1022 30.18 852 25.16 -11.9 10.5 79 -15 5.1
09:35 1023 30.21 852 25.16 -11.9 10.7 77 -15.1 4.9
09:40 1023 30.21 852 25.16 -11.9 10.5 78 -15 4.9
09:45 1023 30.21 852 25.16 -11.7 10.9 78 -14.9 5.2
09:50 1023 30.21 852 25.16 -11.6 11.1 76 -15.1 4.9
09:55 1023 30.21 852 25.16 -11.5 11.4 74 -15.3 4.5
10:00 1023 30.21 852 25.16 -11.2 11.9 73 -15 4.9
10:05 1023 30.21 852 25.16 -11 12.2 73 -15 5.1
10:10 1023 30.21 852 25.16 -10.6 12.9 72 -14.7 5.6
10:15 1023 30.21 852 25.16 -10.7 12.7 72 -14.8 5.4
10:20 1023 30.21 852 25.16 -10 14.1 68 -14.9 5.3
10:25 1023 30.21 852 25.16 -9.8 14.4 66 -15 5
10:30 1023 30.21 852 25.16 -9.8 14.4 67 -14.7 5.5
10:35 1023 30.21 852 25.16 -9.6 14.8 63 -15.4 4.3
10:40 1023 30.21 852 25.16 -9.8 14.4 67 -14.8 5.4
10:45 1023 30.21 852 25.16 -9.9 14.2 67 -15 5.1
10:50 1023 30.21 852 25.16 -9.4 15.1 64 -14.9 5.1
10:55 1023 30.21 852 25.16 -9.4 15.2 64 -14.9 5.1
11:00 1023 30.21 852 25.16 -9.8 14.4 64 -15.4 4.2
11:05 1023 30.21 852 25.16 -9.8 14.4 62 -15.8 3.5
11:10 1023 30.21 852 25.16 -9.8 14.4 63 -15.6 4
11:15 1023 30.21 852 25.16 -9.5 14.9 62 -15.5 4
11:20 1023 30.21 852 25.16 -9.6 14.6 61 -15.8 3.6
11:25 1023 30.21 852 25.16 -9.5 15 61 -15.8 3.6
11:30 1023 30.21 852 25.16 -9.2 15.5 60 -15.7 3.8
11:35 1023 30.21 852 25.16 -9.3 15.3 59 -15.9 3.3
11:40 1023 30.21 852 25.16 -8.9 15.9 56 -16.2 2.8
11:45 1023 30.21 852 25.16 -8.8 16.2 58 -15.6 4
11:50 1023 30.21 852 25.16 -8.8 16.1 58 -15.7 3.8
11:55 1023 30.21 852 25.16 -8 17.7 55 -15.4 4.2
12:00 1023 30.21 852 25.16 -8 17.7 53 -16.1 3.1
12:05 1023 30.21 852 25.16 -7.6 18.3 54 -15.4 4.2
12:10 1023 30.21 853 25.19 -7.5 18.4 54 -15.3 4.5
12:15 1023 30.21 853 25.19 -7.3 18.8 51 -16 3.3
12:20 1023 30.21 852 25.16 -7.4 18.6 51 -15.9 3.4
12:25 1023 30.21 852 25.16 -6.7 19.9 52 -15.1 4.9
12:30 1023 30.21 853 25.19 -5.8 21.6 47 -15.5 4.2
12:35 1023 30.21 853 25.19 -6.2 20.9 50 -15.1 4.9
12:40 1023 30.21 853 25.19 -6.2 20.8 51 -14.9 5.1
12:45 1023 30.21 853 25.19 -6.3 20.7 51 -14.9 5.1
12:50 1023 30.21 853 25.19 -5.7 21.7 48 -15.1 4.9
12:55 1023 30.21 853 25.19 -6.1 20.9 47 -15.8 3.5
13:00 1023 30.21 853 25.19 -6 21.2 53 -14.2 6.5
13:05 1023 30.21 853 25.19 -6.1 21 50 -14.8 5.3
13:10 1023 30.21 853 25.19 -6.1 21 54 -14 6.9
13:15 1023 30.21 853 25.19 -6.6 20.2 52 -14.9 5.2
13:20 1023 30.21 853 25.19 -7 19.4 55 -14.6 5.8
13:25 1023 30.21 853 25.19 -7.1 19.3 57 -14.2 6.5
13:30 1023 30.21 853 25.19 -6.8 19.8 55 -14.5 5.9
13:35 1023 30.21 853 25.19 -6.7 19.9 52 -15 5
13:40 1023 30.21 853 25.19 -6.2 20.8 47 -15.9 3.5
13:45 1023 30.21 853 25.19 -6.6 20.2 54 -14.5 5.9
13:50 1023 30.21 853 25.19 -7.3 18.9 56 -14.7 5.6
13:55 1023 30.21 853 25.19 -7.6 18.4 55 -15.2 4.6
14:00 1023 30.21 853 25.19 -7.5 18.4 57 -14.8 5.4
14:05 1023 30.21 852 25.16 -7.5 18.5 55 -15 5
14:10 1023 30.21 853 25.19 -7.5 18.5 56 -14.8 5.3
14:15 1023 30.21 852 25.16 -7.1 19.2 57 -14.2 6.4
14:20 1023 30.21 852 25.16 -7.3 18.8 56 -14.7 5.5
14:25 1023 30.21 852 25.16 -7.4 18.7 59 -14 6.7
14:30 1023 30.21 852 25.16 -7 19.5 55 -14.6 5.8
14:35 1023 30.21 852 25.16 -6.9 19.7 55 -14.6 5.8
14:40 1023 30.21 852 25.16 -6.8 19.8 56 -14.3 6.3
14:45 1023 30.21 852 25.16 -7 19.5 57 -14.2 6.4
14:50 1023 30.21 852 25.16 -6.9 19.5 55 -14.5 5.9
14:55 1023 30.21 852 25.16 -6.9 19.6 56 -14.3 6.3
15:00 1023 30.21 852 25.16 -6.4 20.5 54 -14.3 6.3
15:05 1023 30.21 852 25.16 -6.4 20.5 55 -14 6.9
15:10 1023 30.21 852 25.16 -6.2 20.8 53 -14.3 6.3
15:15 1023 30.21 852 25.16 -5.9 21.4 54 -13.9 7
15:20 1023 30.21 852 25.16 -5.8 21.6 53 -13.9 7
15:25 1023 30.21 852 25.16 -5.9 21.4 53 -14 6.7
15:30 1023 30.21 852 25.16 -6.3 20.7 54 -14.2 6.4
15:35 1023 30.21 852 25.16 -6 21.2 53 -14 6.7
15:40 1023 30.21 852 25.16 -6.1 21 54 -14 6.8
15:45 1023 30.21 852 25.16 -6.1 21.1 55 -13.8 7.2
15:50 1023 30.21 852 25.16 -6.2 20.9 54 -14.1 6.6
15:55 1023 30.21 852 25.16 -5.9 21.4 52 -14.3 6.3
16:00 1023 30.21 852 25.16 -5.9 21.5 56 -13.4 7.9
16:05 1023 30.21 852 25.16 -6.4 20.6 57 -13.6 7.5
16:10 1023 30.21 852 25.16 -6.1 21.1 55 -13.6 7.5
16:15 1023 30.21 852 25.16 -5.7 21.7 55 -13.3 8
16:20 1023 30.21 852 25.16 -5.7 21.8 53 -13.7 7.4
16:25 1023 30.21 852 25.16 -5.8 21.6 54 -13.7 7.3
16:30 1023 30.21 852 25.16 -6.2 20.8 56 -13.6 7.6
16:35 1023 30.21 852 25.16 -6 21.2 53 -14.1 6.6
16:40 1023 30.21 852 25.16 -5.8 21.6 54 -13.8 7.2
16:45 1023 30.21 852 25.16 -5.2 22.6 52 -13.7 7.4
16:50 1023 30.21 852 25.16 -5.2 22.6 51 -13.8 7.2
16:55 1023 30.21 852 25.16 -5.3 22.5 52 -13.6 7.5
17:00 1023 30.21 852 25.16 -5.5 22.2 51 -14.1 6.5
17:05 1023 30.21 852 25.16 -5.7 21.7 50 -14.5 5.9
17:10 1023 30.21 852 25.16 -6 21.3 50 -14.8 5.3
17:15 1023 30.21 852 25.16 -5.5 22 50 -14.5 6
17:20 1023 30.21 852 25.16 -5.6 21.9 52 -14 6.7
17:25 1023 30.21 852 25.16 -5.4 22.3 52 -13.7 7.3
17:30 1023 30.21 852 25.16 -5.2 22.6 52 -13.6 7.5
17:35 1023 30.21 852 25.16 -5.3 22.5 52 -13.7 7.3
17:40 1023 30.21 852 25.16 -5.4 22.3 52 -13.7 7.3
17:45 1023 30.21 852 25.16 -5.5 22.1 52 -13.8 7.2
17:50 1023 30.21 852 25.16 -5.6 22 53 -13.8 7.1
17:55 1022 30.18 852 25.16 -5.3 22.5 52 -13.6 7.5
18:00 1022 30.18 852 25.16 -5 22.9 50 -13.8 7.1
18:05 1022 30.18 852 25.16 -5 23 52 -13.5 7.7
18:10 1022 30.18 852 25.16 -5.1 22.9 52 -13.4 7.8
18:15 1022 30.18 852 25.16 -5.7 21.7 53 -13.9 7
18:20 1022 30.18 852 25.16 -6.1 21 53 -14.1 6.6
18:25 1022 30.18 852 25.16 -6 21.2 53 -14.2 6.5
18:30 1022 30.18 852 25.16 -6.1 21.1 54 -13.9 6.9
18:35 1022 30.18 852 25.16 -6.3 20.7 52 -14.5 5.8
18:40 1022 30.18 851 25.13 -6.6 20.2 56 -14 6.8
18:45 1022 30.18 851 25.13 -6.7 19.9 57 -13.8 7.2
18:50 1022 30.18 851 25.13 -6.5 20.3 54 -14.4 6
18:55 1022 30.18 851 25.13 -6.7 20 57 -13.8 7.2
19:00 1022 30.18 851 25.13 -6.7 20 56 -14.1 6.7
19:05 1022 30.18 851 25.13 -6.9 19.5 57 -14.1 6.7
19:10 1022 30.18 851 25.13 -6.7 19.9 55 -14.3 6.2
19:15 1022 30.18 851 25.13 -6.7 19.9 54 -14.5 6
19:20 1022 30.18 851 25.13 -7.1 19.3 56 -14.4 6.1
19:25 1022 30.18 851 25.13 -7.3 19 56 -14.7 5.5
19:30 1022 30.18 851 25.13 -7.2 19.1 57 -14.3 6.3
19:35 1022 30.18 851 25.13 -7 19.3 57 -14.2 6.4
19:40 1022 30.18 851 25.13 -7 19.4 57 -14.2 6.5
19:45 1022 30.18 851 25.13 -7 19.4 58 -14 6.7
19:50 1022 30.18 851 25.13 -6.8 19.8 56 -14.1 6.7
19:55 1022 30.18 851 25.13 -6.8 19.8 57 -14 6.8
20:00 1022 30.18 852 25.16 -6.8 19.8 56 -14.2 6.5
20:05 1022 30.18 852 25.16 -6.8 19.7 57 -14 6.7
20:10 1022 30.18 852 25.16 -6.9 19.6 57 -14 6.9
20:15 1022 30.18 852 25.16 -7.1 19.2 57 -14.3 6.3
20:20 1022 30.18 852 25.16 -7.7 18.2 59 -14.4 6.1
20:25 1022 30.18 852 25.16 -8.3 17.1 62 -14.4 6.2
20:30 1022 30.18 852 25.16 -8.8 16.1 63 -14.7 5.6
20:35 1022 30.18 852 25.16 -8.6 16.5 63 -14.5 5.8
20:40 1022 30.18 852 25.16 -8.4 16.8 63 -14.2 6.4
20:45 1022 30.18 852 25.16 -8.8 16.3 66 -13.9 6.9
20:50 1022 30.18 851 25.13 -8.9 16 69 -13.6 7.5
20:55 1022 30.18 851 25.13 -8.7 16.4 71 -13 8.6
21:00 1022 30.18 852 25.16 -8.5 16.7 71 -12.9 8.8
21:05 1022 30.18 852 25.16 -8.4 16.8 70 -12.9 8.7
21:10 1022 30.18 852 25.16 -8.7 16.3 72 -12.9 8.9
21:15 1022 30.18 852 25.16 -9.2 15.5 74 -13.1 8.5
21:20 1022 30.18 852 25.16 -9.4 15.1 75 -13.1 8.5
21:25 1022 30.18 852 25.16 -9.7 14.5 75 -13.4 7.9
21:30 1022 30.18 852 25.16 -10.2 13.7 77 -13.5 7.6
21:35 1022 30.18 852 25.16 -10.3 13.5 77 -13.5 7.6
21:40 1022 30.18 851 25.13 -10 14 75 -13.7 7.4
21:45 1022 30.18 851 25.13 -9.6 14.7 75 -13.3 8
21:50 1022 30.18 851 25.13 -9.6 14.7 76 -13.1 8.4
21:55 1022 30.18 851 25.13 -9.6 14.7 76 -13.1 8.4
22:00 1022 30.18 851 25.13 -9.7 14.6 74 -13.4 7.8
22:05 1022 30.18 851 25.13 -9.8 14.4 74 -13.5 7.6
22:10 1022 30.18 851 25.13 -9.9 14.2 74 -13.7 7.3
22:15 1022 30.18 851 25.13 -9.8 14.4 74 -13.6 7.6
22:20 1022 30.18 851 25.13 -9.7 14.6 74 -13.5 7.7
22:25 1022 30.18 851 25.13 -9.8 14.4 74 -13.5 7.6
22:30 1022 30.18 851 25.13 -9.9 14.1 74 -13.7 7.3
22:35 1022 30.18 851 25.13 -10.1 13.9 74 -13.9 7
22:40 1022 30.18 851 25.13 -10.2 13.6 74 -13.9 6.9
22:45 1022 30.18 851 25.13 -10.4 13.3 75 -13.9 6.9
22:50 1022 30.18 851 25.13 -10.6 12.9 77 -13.9 6.9
22:55 1022 30.18 851 25.13 -10.7 12.8 78 -13.9 7
23:00 1022 30.18 851 25.13 -10.8 12.5 78 -14 6.8
23:05 1022 30.18 851 25.13 -10.8 12.5 77 -14.1 6.6
23:10 1022 30.18 851 25.13 -10.8 12.7 77 -14.1 6.6
23:15 1022 30.18 851 25.13 -10.8 12.6 76 -14.2 6.5
23:20 1022 30.18 851 25.13 -10.7 12.8 76 -14.2 6.5
23:25 1022 30.18 851 25.13 -10.6 13 75 -14.1 6.6
23:30 1022 30.18 851 25.13 -10.6 12.9 76 -14.1 6.6
23:35 1022 30.18 851 25.13 -10.7 12.7 76 -14.1 6.6
23:40 1022 30.18 851 25.13 -10.8 12.5 77 -14.2 6.5
23:45 1022 30.18 851 25.13 -10.9 12.5 77 -14.1 6.6
23:50 1021 30.15 851 25.13 -11 12.3 77 -14.3 6.3
23:55 1021 30.15 851 25.13 -11.2 11.9 78 -14.4 6.2
24:00 1021 30.15 851 25.13 -11.3 11.7 78 -14.4 6